Time;durP1;ratioP1;P1;durP2;ratioP2;P2;SDS_P1;SDS_P2;PMS_P1;PMS_P2;Temp;Humidity;BMP_temperature;BMP_pressure;BME280_temperature;BME280_humidity;BME280_pressure;Samples;Min_cycle;Max_cycle;Signal;HPM_P1;HPM_P2
2024/01/17 00:03:34;;;;;;;6.53;4.20;;;;;;;;;;10363527;28;20201;-68
2024/01/17 00:08:34;;;;;;;7.00;3.23;;;;;;;;;;10371055;28;20283;-67
2024/01/17 00:13:34;;;;;;;9.27;4.53;;;;;;;;;;10374786;28;20217;-67
2024/01/17 00:18:35;;;;;;;10.60;5.60;;;;;;;;;;10370738;28;20224;-67
2024/01/17 00:23:35;;;;;;;10.40;4.20;;;;;;;;;;10374587;28;20192;-68
2024/01/17 00:28:35;;;;;;;5.27;3.83;;;;;;;;;;10373731;28;20741;-68
2024/01/17 00:33:35;;;;;;;5.97;4.70;;;;;;;;;;10373771;28;20219;-67
2024/01/17 00:38:36;;;;;;;10.33;5.13;;;;;;;;;;10369872;28;20199;-68
2024/01/17 00:43:36;;;;;;;9.77;4.90;;;;;;;;;;10373538;28;20197;-67
2024/01/17 00:48:36;;;;;;;3.63;2.30;;;;;;;;;;10372966;28;20216;-65
2024/01/17 00:53:37;;;;;;;9.87;5.47;;;;;;;;;;10373164;28;20612;-66
2024/01/17 00:58:37;;;;;;;8.83;5.97;;;;;;;;;;10369249;28;20626;-67
2024/01/17 01:03:37;;;;;;;11.10;6.43;;;;;;;;;;10372818;28;20630;-66
2024/01/17 01:08:38;;;;;;;10.90;5.87;;;;;;;;;;10372473;28;20225;-67
2024/01/17 01:13:38;;;;;;;9.40;6.07;;;;;;;;;;10371839;28;20219;-66
2024/01/17 01:18:38;;;;;;;14.67;7.33;;;;;;;;;;10367137;28;20204;-66
2024/01/17 01:23:38;;;;;;;13.93;7.37;;;;;;;;;;10371812;28;20203;-67
2024/01/17 01:28:38;;;;;;;9.60;5.17;;;;;;;;;;10371600;28;20644;-67
2024/01/17 01:33:39;;;;;;;7.63;5.33;;;;;;;;;;10371641;28;20213;-68
2024/01/17 01:38:39;;;;;;;11.10;6.07;;;;;;;;;;10367404;28;20216;-67
2024/01/17 01:43:39;;;;;;;8.73;3.95;;;;;;;;;;10371257;28;20192;-67
2024/01/17 01:48:40;;;;;;;12.63;5.17;;;;;;;;;;10370601;28;20705;-67
2024/01/17 01:53:42;;;;;;;11.53;5.03;;;;;;;;;;10367433;28;20706;-67
2024/01/17 01:58:44;;;;;;;12.50;5.43;;;;;;;;;;10366795;28;20591;-67
2024/01/17 02:03:46;;;;;;;11.50;5.57;;;;;;;;;;10370371;28;20227;-66
2024/01/17 02:08:46;;;;;;;7.97;4.53;;;;;;;;;;10370196;28;20705;-67
2024/01/17 02:13:47;;;;;;;15.40;5.78;;;;;;;;;;10366418;28;20215;-67
2024/01/17 02:18:47;;;;;;;16.33;8.13;;;;;;;;;;10369856;28;20206;-68
2024/01/17 02:23:50;;;;;;;16.07;7.80;;;;;;;;;;10369450;28;20687;-68
2024/01/17 02:28:51;;;;;;;11.63;7.13;;;;;;;;;;10369312;28;20220;-67
2024/01/17 02:33:51;;;;;;;16.97;8.70;;;;;;;;;;10365162;28;20224;-67
2024/01/17 02:38:51;;;;;;;11.40;5.70;;;;;;;;;;10368568;28;20217;-67
2024/01/17 02:43:51;;;;;;;10.03;5.57;;;;;;;;;;10368704;28;20190;-67
2024/01/17 02:48:52;;;;;;;10.13;5.03;;;;;;;;;;10367927;28;20206;-67
2024/01/17 02:53:52;;;;;;;7.23;4.30;;;;;;;;;;10365032;28;20206;-68
2024/01/17 02:58:52;;;;;;;10.50;4.67;;;;;;;;;;10368152;28;20197;-66
2024/01/17 03:03:52;;;;;;;11.53;5.17;;;;;;;;;;10368390;28;20717;-67
2024/01/17 03:08:52;;;;;;;12.77;5.10;;;;;;;;;;10366375;28;20721;-67
2024/01/17 03:13:52;;;;;;;5.63;3.50;;;;;;;;;;10366001;28;20224;-67
2024/01/17 03:18:53;;;;;;;15.87;8.60;;;;;;;;;;10368072;28;20606;-67
2024/01/17 03:23:53;;;;;;;8.33;5.13;;;;;;;;;;10367842;28;20204;-67
2024/01/17 03:28:53;;;;;;;9.00;5.23;;;;;;;;;;10364131;28;20455;-68
2024/01/17 03:33:53;;;;;;;19.97;8.57;;;;;;;;;;10367479;28;20309;-66
2024/01/17 03:38:54;;;;;;;16.57;5.73;;;;;;;;;;10367908;28;20298;-68
2024/01/17 03:43:54;;;;;;;8.90;4.50;;;;;;;;;;10372329;28;20200;-67
2024/01/17 03:48:54;;;;;;;9.03;5.43;;;;;;;;;;10372186;28;20213;-68
2024/01/17 03:53:54;;;;;;;11.60;6.33;;;;;;;;;;10375203;28;20213;-67
2024/01/17 03:58:55;;;;;;;20.73;8.83;;;;;;;;;;10374982;28;20624;-67
2024/01/17 04:03:55;;;;;;;15.13;6.50;;;;;;;;;;10375038;28;20193;-66
2024/01/17 04:08:55;;;;;;;14.40;6.80;;;;;;;;;;10370753;28;20242;-67
2024/01/17 04:13:56;;;;;;;15.97;7.93;;;;;;;;;;10374813;28;20920;-67
2024/01/17 04:18:56;;;;;;;19.03;7.93;;;;;;;;;;10374161;28;20213;-68
2024/01/17 04:23:56;;;;;;;63.70;22.03;;;;;;;;;;10374317;28;20296;-67
2024/01/17 04:28:56;;;;;;;14.80;8.10;;;;;;;;;;10370084;28;20217;-67
2024/01/17 04:33:57;;;;;;;11.87;6.23;;;;;;;;;;10373817;28;20697;-66
2024/01/17 04:38:57;;;;;;;10.17;5.63;;;;;;;;;;10373486;28;20499;-67
2024/01/17 04:43:57;;;;;;;15.70;7.43;;;;;;;;;;10372289;28;20187;-66
2024/01/17 04:48:59;;;;;;;14.17;9.03;;;;;;;;;;10371735;28;20217;-68
2024/01/17 04:53:59;;;;;;;18.40;7.80;;;;;;;;;;10372716;28;20208;-68
2024/01/17 04:59:00;;;;;;;34.43;11.63;;;;;;;;;;10372605;28;20206;-68
2024/01/17 05:04:00;;;;;;;67.90;23.30;;;;;;;;;;10370782;28;20246;-68
2024/01/17 05:09:03;;;;;;;11.03;6.77;;;;;;;;;;10372209;28;20723;-68
2024/01/17 05:14:03;;;;;;;3.90;3.17;;;;;;;;;;10372312;28;20251;-68
2024/01/17 05:19:03;;;;;;;7.53;4.03;;;;;;;;;;10371937;28;20236;-68
2024/01/17 05:24:03;;;;;;;8.00;4.03;;;;;;;;;;10370333;28;20223;-68
2024/01/17 05:29:03;;;;;;;7.27;4.20;;;;;;;;;;10371561;28;20209;-68
2024/01/17 05:34:04;;;;;;;7.93;3.77;;;;;;;;;;10371620;28;20567;-68
2024/01/17 05:39:04;;;;;;;7.67;3.73;;;;;;;;;;10371103;28;20202;-67
2024/01/17 05:44:05;;;;;;;5.20;2.90;;;;;;;;;;10369382;28;20285;-67
2024/01/17 05:49:05;;;;;;;9.03;4.07;;;;;;;;;;10371130;28;20224;-68
2024/01/17 05:54:05;;;;;;;8.17;3.43;;;;;;;;;;10371072;28;20221;-67
2024/01/17 05:59:05;;;;;;;3.70;3.00;;;;;;;;;;10370473;28;20271;-67
2024/01/17 06:04:06;;;;;;;9.00;4.28;;;;;;;;;;10367860;28;20199;-67
2024/01/17 06:09:07;;;;;;;5.67;3.03;;;;;;;;;;10370298;28;20330;-68
2024/01/17 06:14:07;;;;;;;8.53;2.97;;;;;;;;;;10369943;28;20224;-68
2024/01/17 06:19:07;;;;;;;6.67;3.57;;;;;;;;;;10367898;28;20205;-68
2024/01/17 06:24:07;;;;;;;5.50;3.90;;;;;;;;;;10369552;28;20280;-68
2024/01/17 06:29:09;;;;;;;7.63;3.27;;;;;;;;;;10367373;28;20213;-68
2024/01/17 06:34:10;;;;;;;3.40;2.93;;;;;;;;;;10369316;28;20756;-68
2024/01/17 06:39:10;;;;;;;7.43;3.10;;;;;;;;;;10367082;28;20278;-69
2024/01/17 06:44:11;;;;;;;5.13;2.47;;;;;;;;;;10369094;28;20448;-69
2024/01/17 06:49:11;;;;;;;3.23;2.27;;;;;;;;;;10368652;28;20213;-68
2024/01/17 06:54:11;;;;;;;3.10;2.40;;;;;;;;;;10368713;28;20221;-68
2024/01/17 06:59:11;;;;;;;6.73;3.23;;;;;;;;;;10366629;28;20208;-68
2024/01/17 07:04:11;;;;;;;5.87;2.67;;;;;;;;;;10368809;28;20197;-67
2024/01/17 07:09:12;;;;;;;9.87;3.30;;;;;;;;;;10368207;28;20514;-67
2024/01/17 07:14:12;;;;;;;4.07;2.77;;;;;;;;;;10368329;28;20225;-68
2024/01/17 07:19:13;;;;;;;3.40;2.50;;;;;;;;;;10366056;28;20235;-68
2024/01/17 07:24:13;;;;;;;5.93;2.60;;;;;;;;;;10367738;28;20267;-68
2024/01/17 07:29:13;;;;;;;3.70;2.00;;;;;;;;;;10368156;28;20307;-69
2024/01/17 07:34:13;;;;;;;4.93;3.27;;;;;;;;;;10367972;28;20220;-69
2024/01/17 07:39:14;;;;;;;9.47;3.40;;;;;;;;;;10366390;28;20719;-68
2024/01/17 07:44:14;;;;;;;6.23;3.00;;;;;;;;;;10369319;28;20774;-67
2024/01/17 07:49:14;;;;;;;7.67;3.60;;;;;;;;;;10367814;28;20233;-68
2024/01/17 07:54:15;;;;;;;4.60;2.70;;;;;;;;;;10365522;28;20279;-67
2024/01/17 07:59:15;;;;;;;6.67;3.13;;;;;;;;;;10367003;28;20684;-67
2024/01/17 08:04:16;;;;;;;6.90;2.93;;;;;;;;;;10367428;28;20682;-67
2024/01/17 08:09:26;;;;;;;7.93;3.50;;;;;;;;;;10366687;28;20244;-68
2024/01/17 08:14:26;;;;;;;4.87;3.40;;;;;;;;;;10365096;28;20209;-66
2024/01/17 08:19:27;;;;;;;3.80;2.87;;;;;;;;;;10366898;28;20232;-67
2024/01/17 08:24:27;;;;;;;8.30;3.73;;;;;;;;;;10366582;28;20247;-66
2024/01/17 08:29:27;;;;;;;7.67;3.83;;;;;;;;;;10370357;28;20220;-67
2024/01/17 08:34:27;;;;;;;6.63;3.70;;;;;;;;;;10371987;28;20412;-67
2024/01/17 08:39:27;;;;;;;6.00;3.40;;;;;;;;;;10373733;28;20761;-67
2024/01/17 08:44:28;;;;;;;4.07;2.50;;;;;;;;;;10373489;28;20721;-67
2024/01/17 08:49:28;;;;;;;8.47;3.27;;;;;;;;;;10373102;28;20276;-68
2024/01/17 08:54:29;;;;;;;5.00;2.60;;;;;;;;;;10371518;28;20990;-68
2024/01/17 08:59:30;;;;;;;2.43;2.17;;;;;;;;;;10372872;28;20216;-68
2024/01/17 09:04:31;;;;;;;5.43;1.93;;;;;;;;;;10373015;28;20185;-68
2024/01/17 09:09:31;;;;;;;4.37;2.60;;;;;;;;;;10372215;28;20328;-68
2024/01/17 09:14:31;;;;;;;4.00;2.50;;;;;;;;;;10370404;28;20312;-66
2024/01/17 09:19:31;;;;;;;4.30;3.00;;;;;;;;;;10372113;28;20267;-67
2024/01/17 09:24:32;;;;;;;2.70;2.40;;;;;;;;;;10372086;28;20197;-67
2024/01/17 09:29:33;;;;;;;6.20;2.80;;;;;;;;;;10369935;28;20223;-68
2024/01/17 09:34:33;;;;;;;6.83;3.10;;;;;;;;;;10371674;28;20240;-67
2024/01/17 09:39:33;;;;;;;3.93;2.83;;;;;;;;;;10370431;28;20214;-68
2024/01/17 09:44:34;;;;;;;4.40;3.17;;;;;;;;;;10371150;28;20193;-67
2024/01/17 09:49:35;;;;;;;7.17;2.67;;;;;;;;;;10369140;28;20217;-67
2024/01/17 09:54:42;;;;;;;4.97;2.67;;;;;;;;;;10370732;28;20221;-66
2024/01/17 09:59:46;;;;;;;4.50;2.57;;;;;;;;;;10369077;28;20762;-67
2024/01/17 10:04:46;;;;;;;3.67;2.63;;;;;;;;;;10370720;28;20591;-67
2024/01/17 10:09:47;;;;;;;5.43;3.10;;;;;;;;;;10368149;28;20236;-67
2024/01/17 10:14:47;;;;;;;4.93;3.03;;;;;;;;;;10370140;28;20228;-66
2024/01/17 10:19:47;;;;;;;10.37;6.50;;;;;;;;;;10370090;28;20250;-67
2024/01/17 10:24:51;;;;;;;5.70;3.07;;;;;;;;;;10369745;28;20204;-66
2024/01/17 10:29:51;;;;;;;4.17;2.80;;;;;;;;;;10367872;28;20456;-67
2024/01/17 10:34:51;;;;;;;9.27;4.20;;;;;;;;;;10369113;28;20251;-66
2024/01/17 10:40:09;;;;;;;5.00;3.20;;;;;;;;;;10369096;28;20209;-66
2024/01/17 10:45:18;;;;;;;6.13;3.93;;;;;;;;;;10365281;28;20272;-66
2024/01/17 10:50:20;;;;;;;4.33;2.77;;;;;;;;;;10368863;28;20189;-67
2024/01/17 10:55:21;;;;;;;5.53;3.23;;;;;;;;;;10368341;28;20221;-65
2024/01/17 11:00:26;;;;;;;9.33;4.10;;;;;;;;;;10368650;28;20599;-67
2024/01/17 11:05:28;;;;;;;6.97;4.23;;;;;;;;;;10366508;28;20241;-67
2024/01/17 11:10:29;;;;;;;4.63;2.97;;;;;;;;;;10367918;28;20228;-67
2024/01/17 11:15:30;;;;;;;9.17;4.80;;;;;;;;;;10366874;28;20304;-67
2024/01/17 11:20:30;;;;;;;7.30;4.70;;;;;;;;;;10367657;28;20654;-65
2024/01/17 11:25:34;;;;;;;6.17;3.23;;;;;;;;;;10368603;28;20316;-67
2024/01/17 11:30:46;;;;;;;4.73;3.60;;;;;;;;;;10367842;28;20200;-66
2024/01/17 11:35:48;;;;;;;8.80;5.17;;;;;;;;;;10366674;28;20217;-67
2024/01/17 11:40:56;;;;;;;7.00;4.23;;;;;;;;;;10367079;28;20197;-66
2024/01/17 11:45:57;;;;;;;3.87;3.00;;;;;;;;;;10363774;28;20285;-67
2024/01/17 11:51:14;;;;;;;4.47;2.90;;;;;;;;;;10367343;28;20296;-66
2024/01/17 11:56:15;;;;;;;4.47;3.60;;;;;;;;;;10365793;28;20224;-67
2024/01/17 12:01:22;;;;;;;5.30;2.97;;;;;;;;;;10365373;28;20194;-67
2024/01/17 12:06:22;;;;;;;7.97;3.20;;;;;;;;;;10373729;28;20244;-67
2024/01/17 12:11:23;;;;;;;4.63;3.23;;;;;;;;;;10374770;28;20212;-67
2024/01/17 12:16:23;;;;;;;6.97;3.67;;;;;;;;;;10374607;28;21016;-66
2024/01/17 12:21:23;;;;;;;3.53;2.42;;;;;;;;;;10372791;28;20709;-67
2024/01/17 12:26:24;;;;;;;4.13;2.77;;;;;;;;;;10373939;28;20264;-67
2024/01/17 12:31:24;;;;;;;2.90;2.07;;;;;;;;;;10373983;28;20229;-66
2024/01/17 12:36:24;;;;;;;6.90;3.70;;;;;;;;;;10373718;28;20231;-67
2024/01/17 12:41:24;;;;;;;5.97;2.70;;;;;;;;;;10372026;28;20739;-66
2024/01/17 12:46:25;;;;;;;5.37;4.30;;;;;;;;;;10373316;28;20217;-67
2024/01/17 12:51:26;;;;;;;4.50;3.17;;;;;;;;;;10371957;28;20213;-66
2024/01/17 12:56:26;;;;;;;7.40;5.07;;;;;;;;;;10372895;28;20225;-66
2024/01/17 13:01:30;;;;;;;7.60;5.13;;;;;;;;;;10369946;28;20686;-67
2024/01/17 13:06:30;;;;;;;7.43;4.50;;;;;;;;;;10372512;28;20695;-66
2024/01/17 13:11:31;;;;;;;7.43;4.60;;;;;;;;;;10372343;28;20217;-67
2024/01/17 13:16:31;;;;;;;10.87;4.53;;;;;;;;;;10372348;28;20213;-67
2024/01/17 13:21:32;;;;;;;7.57;4.50;;;;;;;;;;10370636;28;20567;-67
2024/01/17 13:26:35;;;;;;;5.80;3.80;;;;;;;;;;10371708;28;20216;-67
2024/01/17 13:31:36;;;;;;;8.47;4.23;;;;;;;;;;10371990;28;20713;-67
2024/01/17 13:36:36;;;;;;;20.60;18.57;;;;;;;;;;10369491;28;20352;-67
2024/01/17 13:41:37;;;;;;;5.07;3.97;;;;;;;;;;10371553;28;20205;-68
2024/01/17 13:46:37;;;;;;;7.87;4.70;;;;;;;;;;10371140;28;20587;-67
2024/01/17 13:51:44;;;;;;;3.00;2.60;;;;;;;;;;10365731;28;20231;-66
2024/01/17 13:56:44;;;;;;;3.17;2.70;;;;;;;;;;10371115;28;20688;-68
2024/01/17 14:01:45;;;;;;;5.50;3.80;;;;;;;;;;10370692;28;20224;-69
2024/01/17 14:06:45;;;;;;;5.80;3.73;;;;;;;;;;10370228;28;20487;-69
2024/01/17 14:11:48;;;;;;;5.13;3.77;;;;;;;;;;10368495;28;20217;-69
2024/01/17 14:16:48;;;;;;;7.93;3.10;;;;;;;;;;10369997;28;20224;-69
2024/01/17 14:21:48;;;;;;;5.77;3.50;;;;;;;;;;10370063;28;20206;-68
2024/01/17 14:26:48;;;;;;;5.00;3.40;;;;;;;;;;10369084;28;20813;-68
2024/01/17 14:31:48;;;;;;;6.22;3.90;;;;;;;;;;10367900;28;20223;-66
2024/01/17 14:36:49;;;;;;;3.23;2.90;;;;;;;;;;10369591;28;20212;-68
2024/01/17 14:41:49;;;;;;;6.97;4.00;;;;;;;;;;10368811;28;20485;-68
2024/01/17 14:46:49;;;;;;;11.40;4.90;;;;;;;;;;10369562;28;20209;-68
2024/01/17 14:51:49;;;;;;;30.03;10.27;;;;;;;;;;10367923;28;20224;-66
2024/01/17 14:56:52;;;;;;;13.87;5.80;;;;;;;;;;10368624;28;20585;-66
2024/01/17 15:01:52;;;;;;;9.83;6.57;;;;;;;;;;10368148;28;20324;-66
2024/01/17 15:06:52;;;;;;;5.20;3.53;;;;;;;;;;10367903;28;20229;-66
2024/01/17 15:11:52;;;;;;;14.13;7.57;;;;;;;;;;10366042;28;20224;-66
2024/01/17 15:16:55;;;;;;;8.80;4.00;;;;;;;;;;10367673;28;20202;-65
2024/01/17 15:21:56;;;;;;;5.97;3.67;;;;;;;;;;10367835;28;20841;-66
2024/01/17 15:26:57;;;;;;;5.57;2.20;;;;;;;;;;10365871;28;20620;-66
2024/01/17 15:31:58;;;;;;;5.97;4.03;;;;;;;;;;10367934;28;20229;-66
2024/01/17 15:36:58;;;;;;;6.87;3.30;;;;;;;;;;10367700;28;20221;-66
2024/01/17 15:41:59;;;;;;;6.97;4.23;;;;;;;;;;10375644;28;20216;-66
2024/01/17 15:47:01;;;;;;;5.03;3.50;;;;;;;;;;10373974;28;20208;-66
2024/01/17 15:52:01;;;;;;;5.17;3.10;;;;;;;;;;10375824;28;20471;-66
2024/01/17 15:57:01;;;;;;;6.97;4.30;;;;;;;;;;10375500;28;20320;-65
2024/01/17 16:02:02;;;;;;;5.60;3.43;;;;;;;;;;10375501;28;20204;-65
2024/01/17 16:07:02;;;;;;;4.03;3.23;;;;;;;;;;10372936;28;21041;-67
2024/01/17 16:12:03;;;;;;;5.27;2.63;;;;;;;;;;10375001;28;20308;-66
2024/01/17 16:17:04;;;;;;;5.93;2.60;;;;;;;;;;10376025;28;20510;-68
2024/01/17 16:22:04;;;;;;;9.10;4.90;;;;;;;;;;10375949;28;20579;-68
2024/01/17 16:27:04;;;;;;;5.67;4.17;;;;;;;;;;10373571;28;20209;-68
2024/01/17 16:32:04;;;;;;;11.20;6.30;;;;;;;;;;10374382;28;20221;-67
2024/01/17 16:37:05;;;;;;;51.20;23.43;;;;;;;;;;10375317;28;20267;-67
2024/01/17 16:42:05;;;;;;;8.57;4.83;;;;;;;;;;10373956;28;20573;-67
2024/01/17 16:47:05;;;;;;;6.47;3.87;;;;;;;;;;10375823;28;20463;-66
2024/01/17 16:52:06;;;;;;;9.63;5.80;;;;;;;;;;10375873;28;20225;-67
2024/01/17 16:57:07;;;;;;;6.33;3.97;;;;;;;;;;10375890;28;20219;-67
2024/01/17 17:02:07;;;;;;;8.07;5.70;;;;;;;;;;10374501;28;20651;-67
2024/01/17 17:07:07;;;;;;;12.53;8.33;;;;;;;;;;10375768;28;20228;-67
2024/01/17 17:12:07;;;;;;;13.57;6.90;;;;;;;;;;10375291;28;20296;-67
2024/01/17 17:17:08;;;;;;;12.77;8.97;;;;;;;;;;10375760;28;20394;-67
2024/01/17 17:22:08;;;;;;;14.53;9.23;;;;;;;;;;10376019;28;20247;-67
2024/01/17 17:27:10;;;;;;;15.47;9.20;;;;;;;;;;10375993;28;20790;-66
2024/01/17 17:32:10;;;;;;;28.60;16.93;;;;;;;;;;10377151;28;20221;-67
2024/01/17 17:37:11;;;;;;;10.53;6.23;;;;;;;;;;10375346;28;20211;-67
2024/01/17 17:42:11;;;;;;;9.67;6.17;;;;;;;;;;10372699;28;20189;-66
2024/01/17 17:47:11;;;;;;;10.13;6.90;;;;;;;;;;10374426;28;20237;-66
2024/01/17 17:52:11;;;;;;;10.27;7.20;;;;;;;;;;10374772;28;20271;-67
2024/01/17 17:57:12;;;;;;;10.10;7.30;;;;;;;;;;10373629;28;20205;-66
2024/01/17 18:02:12;;;;;;;10.10;6.93;;;;;;;;;;10372366;28;20268;-67
2024/01/17 18:07:12;;;;;;;13.53;10.17;;;;;;;;;;10374655;28;20749;-67
2024/01/17 18:12:12;;;;;;;15.70;9.83;;;;;;;;;;10375353;28;20700;-67
2024/01/17 18:17:12;;;;;;;12.70;8.87;;;;;;;;;;10374121;28;20232;-67
2024/01/17 18:22:12;;;;;;;13.33;8.17;;;;;;;;;;10374664;28;20197;-67
2024/01/17 18:27:13;;;;;;;9.93;5.93;;;;;;;;;;10373967;28;20225;-66
2024/01/17 18:32:13;;;;;;;15.13;7.97;;;;;;;;;;10373943;28;20236;-65
2024/01/17 18:37:13;;;;;;;12.07;7.77;;;;;;;;;;10371749;28;20221;-66
2024/01/17 18:42:14;;;;;;;9.60;6.13;;;;;;;;;;10372630;28;20249;-67
2024/01/17 18:47:14;;;;;;;13.63;9.10;;;;;;;;;;10370871;28;20249;-66
2024/01/17 18:52:14;;;;;;;10.17;5.97;;;;;;;;;;10370417;28;20224;-66
2024/01/17 18:57:14;;;;;;;12.20;6.90;;;;;;;;;;10369599;28;20212;-65
2024/01/17 19:02:15;;;;;;;11.40;6.60;;;;;;;;;;10370888;28;20193;-66
2024/01/17 19:07:16;;;;;;;8.30;5.73;;;;;;;;;;10370928;28;20268;-67
2024/01/17 19:12:18;;;;;;;10.20;6.03;;;;;;;;;;10370448;28;20219;-68
2024/01/17 19:17:25;;;;;;;9.37;4.67;;;;;;;;;;10367983;28;20205;-68
2024/01/17 19:22:25;;;;;;;11.83;7.30;;;;;;;;;;10369758;28;20193;-68
2024/01/17 19:27:26;;;;;;;10.00;5.80;;;;;;;;;;10369618;28;20215;-68
2024/01/17 19:32:26;;;;;;;8.15;4.57;;;;;;;;;;10370287;28;20243;-68
2024/01/17 19:37:26;;;;;;;6.93;5.23;;;;;;;;;;10368206;28;20398;-68
2024/01/17 19:42:31;;;;;;;8.73;5.13;;;;;;;;;;10371071;28;20446;-68
2024/01/17 19:47:31;;;;;;;5.73;3.87;;;;;;;;;;10370447;28;20244;-68
2024/01/17 19:52:31;;;;;;;15.30;8.10;;;;;;;;;;10368537;28;20263;-67
2024/01/17 19:57:31;;;;;;;7.80;4.97;;;;;;;;;;10370397;28;20216;-68
2024/01/17 20:02:32;;;;;;;4.80;4.07;;;;;;;;;;10369772;28;20205;-67
2024/01/17 20:07:32;;;;;;;5.67;4.37;;;;;;;;;;10369957;28;20487;-69
2024/01/17 20:12:32;;;;;;;7.63;5.80;;;;;;;;;;10368725;28;20271;-69
2024/01/17 20:17:32;;;;;;;3.03;2.40;;;;;;;;;;10371157;28;20216;-69
2024/01/17 20:22:33;;;;;;;2.70;2.43;;;;;;;;;;10372129;28;20452;-69
2024/01/17 20:27:33;;;;;;;5.53;3.73;;;;;;;;;;10378134;28;20232;-70
2024/01/17 20:32:33;;;;;;;5.90;4.20;;;;;;;;;;10374988;28;20229;-69
2024/01/17 20:37:34;;;;;;;88.70;40.57;;;;;;;;;;10376248;28;20209;-70
2024/01/17 20:42:34;;;;;;;6.57;4.63;;;;;;;;;;10375858;28;20457;-69
2024/01/17 20:47:34;;;;;;;16.97;9.23;;;;;;;;;;10376615;28;20299;-69
2024/01/17 20:52:36;;;;;;;7.23;5.10;;;;;;;;;;10373976;28;20235;-69
2024/01/17 20:57:36;;;;;;;7.10;4.00;;;;;;;;;;10373998;28;20708;-69
2024/01/17 21:02:36;;;;;;;5.20;4.00;;;;;;;;;;10373236;28;20213;-71
2024/01/17 21:07:36;;;;;;;12.43;6.60;;;;;;;;;;10372998;28;20263;-71
2024/01/17 21:12:37;;;;;;;11.47;6.97;;;;;;;;;;10371240;28;20229;-69
2024/01/17 21:17:37;;;;;;;14.23;8.63;;;;;;;;;;10372291;28;20251;-71
2024/01/17 21:22:40;;;;;;;15.00;10.10;;;;;;;;;;10372114;28;20200;-68
2024/01/17 21:27:40;;;;;;;14.20;9.97;;;;;;;;;;10368350;28;20833;-69
2024/01/17 21:32:41;;;;;;;13.57;9.57;;;;;;;;;;10371916;28;20221;-70
2024/01/17 21:37:44;;;;;;;15.77;10.60;;;;;;;;;;10372104;28;20288;-71
2024/01/17 21:42:45;;;;;;;19.20;11.50;;;;;;;;;;10372015;28;20197;-70
2024/01/17 21:47:45;;;;;;;17.27;11.00;;;;;;;;;;10369499;28;20224;-68
2024/01/17 21:52:45;;;;;;;19.20;11.87;;;;;;;;;;10371439;28;20221;-69
2024/01/17 21:57:45;;;;;;;20.03;13.13;;;;;;;;;;10371088;28;20299;-68
2024/01/17 22:02:46;;;;;;;23.27;13.83;;;;;;;;;;10370835;28;20243;-71
2024/01/17 22:07:46;;;;;;;21.37;12.77;;;;;;;;;;10368053;28;20240;-71
2024/01/17 22:12:46;;;;;;;20.70;13.83;;;;;;;;;;10370440;28;20472;-71
2024/01/17 22:17:50;;;;;;;22.00;13.63;;;;;;;;;;10370689;28;20255;-71
2024/01/17 22:22:51;;;;;;;21.50;13.70;;;;;;;;;;10370668;28;20197;-71
2024/01/17 22:27:51;;;;;;;26.00;15.87;;;;;;;;;;10370818;28;20223;-70
2024/01/17 22:32:52;;;;;;;26.60;15.47;;;;;;;;;;10370170;28;20726;-70
2024/01/17 22:37:53;;;;;;;36.63;18.77;;;;;;;;;;10369882;28;20235;-70
2024/01/17 22:42:53;;;;;;;31.83;17.97;;;;;;;;;;10370415;28;20572;-73
2024/01/17 22:47:53;;;;;;;24.73;16.10;;;;;;;;;;10367824;28;20302;-69
2024/01/17 22:52:54;;;;;;;24.83;15.27;;;;;;;;;;10370549;28;20267;-72
2024/01/17 22:57:54;;;;;;;28.50;17.30;;;;;;;;;;10370277;28;20705;-71
2024/01/17 23:02:54;;;;;;;25.87;16.17;;;;;;;;;;10368497;28;20272;-72
2024/01/17 23:07:54;;;;;;;28.07;16.40;;;;;;;;;;10371194;28;20229;-71
2024/01/17 23:12:55;;;;;;;36.57;19.87;;;;;;;;;;10370534;28;20252;-72
2024/01/17 23:17:55;;;;;;;105.40;41.40;;;;;;;;;;10371379;28;20201;-72
2024/01/17 23:22:56;;;;;;;46.43;23.53;;;;;;;;;;10368801;28;20251;-72
2024/01/17 23:27:56;;;;;;;43.60;22.63;;;;;;;;;;10371331;28;20757;-71
2024/01/17 23:32:57;;;;;;;56.23;24.43;;;;;;;;;;10370189;28;20259;-72
2024/01/17 23:37:57;;;;;;;34.13;19.57;;;;;;;;;;10370153;28;20205;-70
2024/01/17 23:42:57;;;;;;;46.97;22.53;;;;;;;;;;10368067;28;20583;-70
2024/01/17 23:47:58;;;;;;;39.27;19.97;;;;;;;;;;10370586;28;20263;-71
2024/01/17 23:52:58;;;;;;;95.77;36.43;;;;;;;;;;10370392;28;20233;-71
2024/01/17 23:57:58;;;;;;;37.60;19.50;;;;;;;;;;10369818;28;20719;-70
